createdAt,value
2018-01-27T00:01:59.462Z,164.77
2018-01-27T00:04:27.773Z,33.60
2018-01-27T00:06:55.298Z,28.10
2018-01-27T00:09:23.617Z,30.63
2018-01-27T00:11:51.150Z,30.73
2018-01-27T00:14:18.705Z,32.87
2018-01-27T00:16:46.989Z,33.93
2018-01-27T00:19:14.554Z,27.30
2018-01-27T00:21:42.084Z,36.33
2018-01-27T00:24:10.406Z,21.33
2018-01-27T00:26:37.944Z,26.77
2018-01-27T00:29:05.489Z,25.07
2018-01-27T00:31:33.778Z,22.00
2018-01-27T00:34:01.338Z,25.73
2018-01-27T00:36:28.876Z,21.93
2018-01-27T00:38:57.213Z,29.27
2018-01-27T00:41:24.730Z,27.07
2018-01-27T00:43:53.049Z,28.80
2018-01-27T00:46:20.610Z,25.70
2018-01-27T00:48:48.158Z,28.30
2018-01-27T00:51:15.694Z,27.03
2018-01-27T00:53:43.247Z,31.10
2018-01-27T00:56:10.786Z,25.77
2018-01-27T00:58:39.110Z,25.17
2018-01-27T01:01:06.641Z,25.90
2018-01-27T01:03:34.961Z,24.23
2018-01-27T01:06:02.487Z,21.73
2018-01-27T01:08:30.039Z,26.27
2018-01-27T01:10:58.339Z,25.67
2018-01-27T01:13:25.892Z,27.17
2018-01-27T01:15:53.454Z,23.30
2018-01-27T01:18:21.013Z,23.27
2018-01-27T01:20:48.541Z,24.30
2018-01-27T01:23:16.864Z,18.83
2018-01-27T01:25:44.398Z,24.90
2018-01-27T01:28:11.949Z,20.60
2018-01-27T01:30:40.255Z,22.33
2018-01-27T01:33:07.802Z,25.67
2018-01-27T01:35:35.331Z,23.60
2018-01-27T01:38:02.885Z,26.13
2018-01-27T01:40:30.414Z,27.93
2018-01-27T01:43:03.666Z,25.90
2018-01-27T01:45:31.205Z,41.67
2018-01-27T01:47:59.530Z,37.70
2018-01-27T01:50:27.068Z,80.07
2018-01-27T01:52:54.622Z,43.57
2018-01-27T01:55:22.905Z,43.43
2018-01-27T01:57:50.478Z,38.17
2018-01-27T02:00:18.010Z,163.43
2018-01-27T02:02:46.338Z,269.37
2018-01-27T02:05:13.865Z,91.30
2018-01-27T02:07:41.425Z,410.07
2018-01-27T02:10:08.945Z,91.20
2018-01-27T02:12:36.474Z,205.30
2018-01-27T02:15:04.064Z,58.17
2018-01-27T02:17:31.598Z,102.13
2018-01-27T02:19:59.250Z,27.40
2018-01-27T02:22:26.781Z,29.53
2018-01-27T02:24:54.402Z,86.37
2018-01-27T02:27:21.987Z,36.53
2018-01-27T02:29:49.506Z,32.33
2018-01-27T02:32:17.040Z,26.00
2018-01-27T02:34:45.069Z,16.03
2018-01-27T02:37:13.888Z,46.00
2018-01-27T02:39:42.038Z,20.27
2018-01-27T02:42:10.414Z,67.47
2018-01-27T02:44:38.729Z,201.80
2018-01-27T02:47:06.265Z,455.00
2018-01-27T02:49:33.818Z,349.97
2018-01-27T02:52:02.105Z,88.37
2018-01-27T02:54:29.707Z,129.77
2018-01-27T02:56:57.236Z,98.57
2018-01-27T02:59:24.795Z,112.60
2018-01-27T03:01:52.326Z,90.00
2018-01-27T03:04:20.645Z,75.57
2018-01-27T03:06:48.174Z,55.37
2018-01-27T03:09:15.734Z,20.10
2018-01-27T03:11:44.029Z,18.17
2018-01-27T03:14:11.577Z,22.03
2018-01-27T03:16:39.106Z,19.83
2018-01-27T03:19:06.660Z,28.03
2018-01-27T03:21:34.191Z,27.93
2018-01-27T03:24:01.734Z,34.17
2018-01-27T03:26:29.315Z,28.77
2018-01-27T03:28:56.866Z,28.47
2018-01-27T03:31:24.403Z,34.17
2018-01-27T03:33:51.956Z,34.63
2018-01-27T03:36:19.485Z,103.53
2018-01-27T03:38:47.041Z,174.30
2018-01-27T03:41:14.574Z,94.90
2018-01-27T03:43:42.130Z,155.67
2018-01-27T03:46:09.658Z,95.43
2018-01-27T03:48:37.211Z,173.23
2018-01-27T03:51:04.741Z,62.13
2018-01-27T03:53:32.293Z,108.13
2018-01-27T03:55:59.813Z,87.50
2018-01-27T03:58:27.366Z,200.47
2018-01-27T04:00:54.889Z,241.37
2018-01-27T04:03:23.213Z,453.17
2018-01-27T04:05:50.741Z,420.40
2018-01-27T04:08:19.066Z,457.27
2018-01-27T04:10:46.601Z,237.87
2018-01-27T04:13:14.161Z,197.63
2018-01-27T04:15:41.682Z,195.50
2018-01-27T04:18:10.001Z,176.20
2018-01-27T04:20:37.526Z,126.10
2018-01-27T04:23:05.826Z,223.07
2018-01-27T04:25:33.377Z,153.10
2018-01-27T04:28:00.922Z,235.63
2018-01-27T04:30:29.245Z,199.63
2018-01-27T04:32:56.778Z,255.27
2018-01-27T04:35:24.338Z,188.33
2018-01-27T04:37:51.866Z,161.83
2018-01-27T04:40:19.430Z,250.43
2018-01-27T04:42:47.726Z,193.37
2018-01-27T04:45:16.042Z,70.53
2018-01-27T04:47:43.571Z,56.30
2018-01-27T04:50:11.122Z,16.80
2018-01-27T04:52:38.651Z,29.47
2018-01-27T04:55:06.205Z,23.30
2018-01-27T04:57:33.731Z,58.17
2018-01-27T05:00:01.286Z,170.60
2018-01-27T05:02:28.813Z,44.10
2018-01-27T05:04:57.127Z,26.00
2018-01-27T05:07:24.657Z,19.00
2018-01-27T05:09:52.977Z,16.43
2018-01-27T05:12:21.262Z,17.20
2018-01-27T05:14:48.823Z,17.17
2018-01-27T05:17:17.125Z,16.07
2018-01-27T05:19:44.680Z,19.77
2018-01-27T05:22:12.197Z,13.57
2018-01-27T05:24:39.762Z,14.13
2018-01-27T05:27:07.303Z,20.90
2018-01-27T05:29:34.853Z,18.33
2018-01-27T05:32:02.382Z,27.43
2018-01-27T05:34:29.933Z,30.00
2018-01-27T05:36:57.462Z,100.90
2018-01-27T05:39:25.010Z,88.37
2018-01-27T05:41:52.538Z,115.40
2018-01-27T05:44:20.866Z,274.47
2018-01-27T05:46:48.402Z,114.77
2018-01-27T05:49:15.954Z,216.20
2018-01-27T05:51:43.485Z,22.50
2018-01-27T05:54:11.802Z,19.07
2018-01-27T05:56:39.330Z,43.53
2018-01-27T05:59:07.646Z,68.80
2018-01-27T06:01:35.186Z,160.60
2018-01-27T06:04:02.737Z,112.03
2018-01-27T06:06:30.270Z,343.40
2018-01-27T06:08:57.830Z,212.67
2018-01-27T06:11:25.366Z,129.27
2018-01-27T06:13:52.915Z,55.50
2018-01-27T06:16:20.472Z,176.37
2018-01-27T06:18:48.078Z,101.70
2018-01-27T06:21:16.369Z,62.57
2018-01-27T06:23:44.694Z,87.30
2018-01-27T06:26:12.214Z,33.27
2018-01-27T06:28:39.759Z,32.10
2018-01-27T06:52:15.158Z,21.87
2018-01-27T06:54:42.719Z,19.70
2018-01-27T06:57:10.250Z,17.67
2018-01-27T06:59:38.884Z,17.20
2018-01-27T07:02:06.451Z,41.50
2018-01-27T07:04:34.019Z,21.52
2018-01-27T07:07:01.564Z,42.30
2018-01-27T07:09:29.120Z,25.57
2018-01-27T07:11:56.658Z,24.70
2018-01-27T07:14:24.977Z,68.43
2018-01-27T07:16:52.526Z,125.25
2018-01-27T07:19:20.149Z,99.47
2018-01-27T07:21:48.469Z,95.13
2018-01-27T07:24:16.025Z,89.97
2018-01-27T07:26:43.553Z,91.57
2018-01-27T07:29:11.876Z,56.00
2018-01-27T07:31:39.401Z,29.00
2018-01-27T07:34:06.958Z,27.50
2018-01-27T07:36:34.503Z,35.10
2018-01-27T07:39:02.817Z,49.67
2018-01-27T07:41:30.349Z,148.77
2018-01-27T07:43:57.902Z,139.00
2018-01-27T07:46:25.441Z,163.10
2018-01-27T07:48:53.004Z,148.97
2018-01-27T07:51:20.538Z,159.93
2018-01-27T07:53:48.074Z,122.27
2018-01-27T07:56:15.630Z,233.70
2018-01-27T07:58:43.161Z,77.70
2018-01-27T08:01:11.482Z,95.87
2018-01-27T08:03:39.014Z,42.87
2018-01-27T08:06:06.567Z,20.40
2018-01-27T08:08:34.094Z,55.30
2018-01-27T08:11:01.646Z,36.97
2018-01-27T08:13:29.182Z,21.30
2018-01-27T08:15:56.747Z,27.10
2018-01-27T08:18:24.286Z,92.43
2018-01-27T08:20:51.846Z,355.93
2018-01-27T08:23:19.381Z,170.20
2018-01-27T08:25:46.942Z,207.73
2018-01-27T08:28:14.474Z,218.93
2018-01-27T08:30:42.035Z,364.97
2018-01-27T08:33:09.562Z,670.43
2018-01-27T08:35:37.118Z,311.03
2018-01-27T08:38:04.649Z,246.67
2018-01-27T08:40:32.197Z,307.27
2018-01-27T08:42:59.729Z,440.43
2018-01-27T08:45:27.286Z,108.73
2018-01-27T08:47:54.813Z,246.63
2018-01-27T08:50:22.370Z,147.27
2018-01-27T08:52:49.894Z,191.00
2018-01-27T08:55:17.457Z,170.93
2018-01-27T08:57:44.985Z,274.63
2018-01-27T09:00:12.549Z,142.73
2018-01-27T09:02:40.135Z,259.40
2018-01-27T09:05:07.700Z,172.13
2018-01-27T09:07:35.248Z,240.40
2018-01-27T09:10:03.565Z,294.07
2018-01-27T09:12:31.094Z,232.37
2018-01-27T09:14:58.661Z,120.63
2018-01-27T09:17:26.190Z,142.83
2018-01-27T09:19:54.512Z,199.83
2018-01-27T09:22:22.044Z,187.00
2018-01-27T09:24:50.365Z,197.60
2018-01-27T09:27:17.904Z,126.17
2018-01-27T09:29:45.467Z,159.77
2018-01-27T09:32:12.998Z,117.17
2018-01-27T09:34:42.093Z,46.83
2018-01-27T09:37:10.389Z,34.07
2018-01-27T09:39:37.946Z,55.37
2018-01-27T09:42:05.470Z,61.77
2018-01-27T09:44:33.029Z,102.77
2018-01-27T09:47:00.554Z,48.30
2018-01-27T09:49:28.106Z,53.07
2018-01-27T09:51:55.638Z,49.20
2018-01-27T09:54:23.226Z,55.37
2018-01-27T09:56:50.783Z,84.63
2018-01-27T09:59:18.315Z,76.43
2018-01-27T10:01:46.630Z,81.57
2018-01-27T10:04:14.162Z,65.63
2018-01-27T10:06:41.718Z,130.20
2018-01-27T10:09:09.251Z,106.27
2018-01-27T10:11:37.594Z,76.07
2018-01-27T10:14:05.123Z,44.93
2018-01-27T10:16:32.677Z,24.50
2018-01-27T10:19:00.212Z,66.10
2018-01-27T10:21:28.545Z,404.13
2018-01-27T10:23:56.084Z,521.83
2018-01-27T10:26:23.637Z,458.07
2018-01-27T10:28:51.178Z,834.77
2018-01-27T10:31:19.501Z,337.77
2018-01-27T10:33:47.798Z,608.33
2018-01-27T10:36:15.347Z,710.23
2018-01-27T10:38:42.878Z,269.20
2018-01-27T10:41:10.433Z,696.57
2018-01-27T10:43:38.187Z,416.07
2018-01-27T10:46:05.765Z,291.43
2018-01-27T10:48:33.368Z,149.83
2018-01-27T10:51:01.709Z,148.30
2018-01-27T10:53:29.248Z,135.57
2018-01-27T10:55:56.806Z,306.63
2018-01-27T10:58:24.333Z,178.77
2018-01-27T11:00:51.905Z,199.63
2018-01-27T11:03:20.208Z,251.27
2018-01-27T11:05:47.773Z,433.33
2018-01-27T11:08:15.305Z,428.73
2018-01-27T11:10:43.643Z,126.43
2018-01-27T11:13:11.941Z,413.20
2018-01-27T11:15:39.502Z,385.60
2018-01-27T11:18:07.067Z,202.83
2018-01-27T11:20:34.626Z,220.17
2018-01-27T11:23:02.158Z,298.63
2018-01-27T11:25:29.710Z,246.67
2018-01-27T11:27:57.242Z,303.10
2018-01-27T11:30:24.794Z,196.50
2018-01-27T11:32:52.327Z,112.33
2018-01-27T11:35:19.853Z,136.87
2018-01-27T11:37:47.411Z,69.60
2018-01-27T11:40:15.701Z,48.87
2018-01-27T11:42:43.290Z,68.33
2018-01-27T11:45:11.590Z,67.13
2018-01-27T11:47:39.146Z,67.77
2018-01-27T11:50:06.670Z,70.57
2018-01-27T11:52:34.230Z,66.97
2018-01-27T11:55:01.762Z,60.20
2018-01-27T11:57:29.332Z,48.43
2018-01-27T11:59:56.869Z,43.10
2018-01-27T12:02:24.429Z,40.83
2018-01-27T12:04:51.957Z,46.30
2018-01-27T12:07:20.271Z,46.67
2018-01-27T12:09:47.793Z,53.13
2018-01-27T12:12:16.111Z,52.00
2018-01-27T12:14:43.645Z,56.60
2018-01-27T12:17:11.194Z,51.67
2018-01-27T12:19:39.482Z,54.37
2018-01-27T12:22:07.037Z,55.17
2018-01-27T12:24:34.566Z,59.47
2018-01-27T12:27:02.127Z,65.70
2018-01-27T12:29:29.657Z,84.13
2018-01-27T12:31:57.954Z,70.57
2018-01-27T12:34:25.510Z,104.27
2018-01-27T12:36:53.033Z,89.87
2018-01-27T12:39:20.587Z,86.70
2018-01-27T12:41:48.114Z,77.90
2018-01-27T12:44:16.434Z,71.67
2018-01-27T12:46:43.967Z,87.83
2018-01-27T12:49:11.517Z,94.70
2018-01-27T12:51:39.808Z,83.90
2018-01-27T12:54:07.368Z,89.63
2018-01-27T12:56:34.915Z,92.83
2018-01-27T12:59:03.231Z,87.47
2018-01-27T13:01:30.761Z,67.53
2018-01-27T13:03:58.325Z,63.70
2018-01-27T13:06:25.853Z,58.83
2018-01-27T13:08:54.177Z,64.00
2018-01-27T13:11:21.709Z,104.10
2018-01-27T13:13:50.029Z,110.67
2018-01-27T13:16:17.555Z,77.30
2018-01-27T13:18:45.367Z,75.60
2018-01-27T13:21:12.954Z,96.50
2018-01-27T13:23:40.557Z,57.83
2018-01-27T13:26:08.094Z,55.23
2018-01-27T13:28:35.662Z,67.27
2018-01-27T13:31:03.418Z,77.23
2018-01-27T13:33:31.018Z,46.40
2018-01-27T13:35:58.842Z,84.30
2018-01-27T13:38:26.450Z,58.03
2018-01-27T13:40:54.024Z,40.93
2018-01-27T13:43:21.570Z,74.40
2018-01-27T13:45:49.125Z,70.00
2018-01-27T13:48:16.690Z,47.53
2018-01-27T13:50:44.246Z,69.57
2018-01-27T13:53:11.769Z,62.97
2018-01-27T13:55:39.329Z,61.00
2018-01-27T13:58:06.863Z,58.83
2018-01-27T14:00:35.193Z,75.93
2018-01-27T14:03:02.728Z,57.53
2018-01-27T14:05:30.286Z,56.60
2018-01-27T14:07:57.829Z,49.53
2018-01-27T14:10:26.159Z,44.23
2018-01-27T14:12:53.699Z,76.97
2018-01-27T14:15:21.260Z,47.33
2018-01-27T14:17:48.814Z,74.93
2018-01-27T14:20:16.373Z,47.57
2018-01-27T14:22:43.909Z,42.33
2018-01-27T14:25:12.238Z,58.10
2018-01-27T14:27:39.763Z,47.90
2018-01-27T14:30:07.313Z,51.53
2018-01-27T14:32:35.606Z,48.73
2018-01-27T14:35:03.162Z,43.00
2018-01-27T14:37:30.696Z,64.90
2018-01-27T14:39:58.990Z,60.00
2018-01-27T14:42:26.554Z,55.70
2018-01-27T14:44:54.087Z,54.93
2018-01-27T14:47:22.409Z,66.80
2018-01-27T14:49:49.948Z,63.83
2018-01-27T14:52:17.509Z,53.57
2018-01-27T14:54:45.042Z,55.03
2018-01-27T14:57:12.601Z,49.67
2018-01-27T14:59:40.133Z,48.87
2018-01-27T15:02:07.682Z,50.27
2018-01-27T15:04:35.254Z,45.93
2018-01-27T15:07:02.809Z,46.00
2018-01-27T15:09:30.329Z,49.37
2018-01-27T15:11:57.893Z,42.37
2018-01-27T15:14:25.417Z,46.00
2018-01-27T15:16:52.970Z,51.50
2018-01-27T15:19:20.502Z,43.60
2018-01-27T15:21:48.054Z,35.80
2018-01-27T15:24:15.588Z,39.53
2018-01-27T15:26:43.145Z,38.43
2018-01-27T15:29:10.690Z,40.40
2018-01-27T15:31:39.009Z,42.73
2018-01-27T15:34:06.545Z,37.80
2018-01-27T15:36:34.119Z,44.53
2018-01-27T15:39:01.669Z,113.67
2018-01-27T15:41:29.229Z,57.10
2018-01-27T15:43:56.780Z,44.37
2018-01-27T15:46:24.346Z,40.47
2018-01-27T15:48:52.093Z,36.63
2018-01-27T15:51:20.643Z,41.50
2018-01-27T15:53:48.181Z,43.47
2018-01-27T15:56:15.734Z,43.80
2018-01-27T15:58:43.252Z,35.07
2018-01-27T16:01:12.804Z,41.87
2018-01-27T16:03:40.356Z,51.13
2018-01-27T16:06:07.910Z,44.97
2018-01-27T16:08:35.438Z,38.80
2018-01-27T16:11:03.772Z,47.83
2018-01-27T16:13:32.063Z,38.60
2018-01-27T16:15:59.621Z,47.93
2018-01-27T16:18:27.150Z,42.40
2018-01-27T16:20:54.710Z,42.43
2018-01-27T16:23:22.237Z,43.57
2018-01-27T16:25:50.559Z,42.10
2018-01-27T16:28:18.086Z,44.90
2018-01-27T16:30:45.650Z,47.63
2018-01-27T16:33:13.177Z,46.23
2018-01-27T16:35:41.482Z,45.53
2018-01-27T16:38:09.034Z,52.93
2018-01-27T16:40:37.350Z,56.33
2018-01-27T16:43:04.913Z,43.67
2018-01-27T16:45:32.441Z,61.53
2018-01-27T16:47:59.990Z,61.37
2018-01-27T16:50:28.321Z,56.23
2018-01-27T16:52:55.875Z,51.17
2018-01-27T16:55:23.402Z,68.73
2018-01-27T16:57:50.959Z,88.23
2018-01-27T17:00:18.485Z,75.17
2018-01-27T17:02:46.042Z,60.83
2018-01-27T17:05:13.583Z,73.93
2018-01-27T17:07:41.156Z,72.07
2018-01-27T17:10:08.686Z,69.70
2018-01-27T17:12:36.237Z,71.60
2018-01-27T17:15:03.784Z,81.50
2018-01-27T17:17:31.350Z,80.87
2018-01-27T17:19:58.878Z,84.07
2018-01-27T17:22:27.206Z,80.07
2018-01-27T17:24:54.745Z,78.70
2018-01-27T17:27:22.300Z,79.70
2018-01-27T17:29:49.845Z,79.50
2018-01-27T17:32:17.408Z,91.67
2018-01-27T17:34:44.932Z,83.00
2018-01-27T17:37:12.547Z,97.90
2018-01-27T17:39:40.085Z,90.63
2018-01-27T17:42:07.655Z,82.73
2018-01-27T17:44:35.218Z,90.93
2018-01-27T17:47:02.773Z,72.43
2018-01-27T17:49:30.309Z,75.50
2018-01-27T17:51:58.641Z,72.87
2018-01-27T17:54:26.941Z,60.40
2018-01-27T17:56:54.514Z,59.47
2018-01-27T17:59:22.048Z,64.00
2018-01-27T18:01:49.606Z,57.73
2018-01-27T18:04:17.914Z,50.60
2018-01-27T18:06:45.482Z,46.43
2018-01-27T18:09:13.783Z,53.13
2018-01-27T18:11:41.349Z,53.13
2018-01-27T18:14:08.879Z,56.73
2018-01-27T18:16:37.202Z,63.67
2018-01-27T18:19:04.771Z,63.47
2018-01-27T18:21:32.334Z,62.23
2018-01-27T18:24:00.039Z,60.37
2018-01-27T18:26:28.357Z,69.70
2018-01-27T18:28:55.893Z,52.37
2018-01-27T18:31:23.457Z,51.37
2018-01-27T18:33:51.059Z,37.03
2018-01-27T18:36:18.594Z,56.80
2018-01-27T18:38:46.117Z,51.13
2018-01-27T18:41:14.437Z,42.53
2018-01-27T18:43:41.977Z,57.40
2018-01-27T18:46:09.514Z,55.37
2018-01-27T18:48:37.863Z,50.33
2018-01-27T18:51:05.394Z,44.67
2018-01-27T18:53:32.969Z,54.37
2018-01-27T18:56:00.517Z,45.50
2018-01-27T18:58:28.093Z,47.90
2018-01-27T19:00:55.621Z,53.40
2018-01-27T19:03:23.188Z,43.03
2018-01-27T19:05:50.730Z,48.90
2018-01-27T19:08:18.283Z,53.97
2018-01-27T19:10:45.828Z,46.23
2018-01-27T19:13:14.162Z,45.50
2018-01-27T19:15:41.690Z,46.87
2018-01-27T19:18:09.244Z,50.03
2018-01-27T19:20:36.802Z,41.60
2018-01-27T19:23:04.366Z,47.90
2018-01-27T19:25:32.037Z,43.17
2018-01-27T19:27:59.604Z,47.77
2018-01-27T19:30:27.142Z,36.77
2018-01-27T19:32:54.709Z,43.43
2018-01-27T19:35:22.251Z,44.20
2018-01-27T19:37:50.838Z,42.00
2018-01-27T19:40:19.136Z,40.87
2018-01-27T19:42:46.697Z,40.07
2018-01-27T19:45:14.234Z,41.83
2018-01-27T19:47:42.573Z,39.83
2018-01-27T19:50:10.110Z,37.87
2018-01-27T19:52:37.695Z,41.57
2018-01-27T19:55:05.241Z,41.90
2018-01-27T19:57:33.282Z,38.73
2018-01-27T20:00:01.150Z,35.67
2018-01-27T20:02:28.763Z,41.70
2018-01-27T20:04:56.310Z,40.47
2018-01-27T20:07:23.874Z,46.50
2018-01-27T20:09:51.405Z,41.93
2018-01-27T20:12:18.983Z,49.50
2018-01-27T20:14:46.521Z,47.20
2018-01-27T20:17:14.073Z,52.87
2018-01-27T20:19:41.618Z,61.13
2018-01-27T20:22:09.185Z,58.27
2018-01-27T20:24:36.725Z,49.60
2018-01-27T20:27:05.053Z,54.43
2018-01-27T20:29:32.699Z,58.67
2018-01-27T20:32:00.269Z,59.80
2018-01-27T20:34:27.797Z,66.77
2018-01-27T20:36:55.360Z,68.83
2018-01-27T20:39:22.927Z,67.60
2018-01-27T20:41:50.495Z,70.00
2018-01-27T20:44:18.072Z,72.83
2018-01-27T20:46:45.638Z,61.53
2018-01-27T20:49:13.180Z,72.20
2018-01-27T20:51:40.757Z,62.20
2018-01-27T20:54:08.299Z,70.13
2018-01-27T20:56:35.843Z,68.13
2018-01-27T20:59:03.400Z,82.17
2018-01-27T21:01:30.937Z,73.17
2018-01-27T21:03:59.270Z,73.93
2018-01-27T21:06:26.804Z,71.83
2018-01-27T21:08:54.365Z,72.87
2018-01-27T21:11:21.898Z,73.00
2018-01-27T21:13:50.218Z,79.13
2018-01-27T21:16:17.756Z,70.30
2018-01-27T21:18:45.314Z,70.13
2018-01-27T21:21:12.849Z,76.00
2018-01-27T21:23:41.173Z,82.90
2018-01-27T21:26:08.730Z,80.77
2018-01-27T21:28:36.313Z,69.30
2018-01-27T21:31:03.922Z,72.57
2018-01-27T21:33:31.505Z,63.73
2018-01-27T21:35:59.054Z,69.53
2018-01-27T21:38:26.640Z,56.93
2018-01-27T21:40:54.180Z,50.33
2018-01-27T21:43:21.833Z,50.57
2018-01-27T21:45:49.378Z,50.97
2018-01-27T21:48:17.726Z,51.73
2018-01-27T21:50:45.266Z,50.10
2018-01-27T21:53:12.834Z,47.43
2018-01-27T21:55:40.449Z,46.53
2018-01-27T21:58:08.190Z,51.23
2018-01-27T22:00:36.498Z,44.90
2018-01-27T22:03:04.062Z,41.37
2018-01-27T22:05:31.591Z,42.80
2018-01-27T22:07:59.921Z,42.60
2018-01-27T22:10:27.458Z,39.93
2018-01-27T22:12:55.017Z,34.07
2018-01-27T22:15:22.557Z,29.57
2018-01-27T22:17:50.882Z,32.60
2018-01-27T22:20:18.412Z,29.43
2018-01-27T22:22:46.013Z,31.20
2018-01-27T22:25:13.555Z,31.10
2018-01-27T22:27:41.114Z,26.57
2018-01-27T22:30:08.648Z,31.93
2018-01-27T22:32:36.694Z,27.10
2018-01-27T22:35:04.519Z,34.20
2018-01-27T22:37:32.082Z,33.57
2018-01-27T22:39:59.619Z,34.97
2018-01-27T22:42:27.199Z,35.80
2018-01-27T22:44:54.728Z,36.10
2018-01-27T22:47:22.293Z,38.03
2018-01-27T22:49:49.831Z,35.33
2018-01-27T22:52:18.157Z,33.57
2018-01-27T22:54:45.688Z,42.67
2018-01-27T22:57:13.237Z,32.00
2018-01-27T22:59:40.786Z,31.17
2018-01-27T23:02:09.119Z,35.77
2018-01-27T23:04:36.674Z,36.73
2018-01-27T23:07:04.217Z,43.17
2018-01-27T23:09:31.785Z,40.87
2018-01-27T23:11:59.309Z,29.93
2018-01-27T23:14:27.626Z,27.20
2018-01-27T23:16:55.158Z,25.60
2018-01-27T23:19:22.714Z,21.60
2018-01-27T23:21:50.262Z,35.00
2018-01-27T23:24:18.578Z,25.87
2018-01-27T23:26:46.110Z,19.73
2018-01-27T23:29:13.670Z,22.80
2018-01-27T23:31:41.201Z,21.50
2018-01-27T23:34:09.530Z,20.97
2018-01-27T23:36:37.057Z,20.63
2018-01-27T23:39:05.380Z,23.47
2018-01-27T23:41:32.910Z,20.20
2018-01-27T23:44:00.467Z,20.33
2018-01-27T23:46:27.998Z,22.33
2018-01-27T23:48:56.369Z,18.10
2018-01-27T23:51:23.898Z,20.63
2018-01-27T23:53:51.632Z,17.10
2018-01-27T23:56:19.160Z,17.80
2018-01-27T23:58:47.516Z,20.23
